| time (UTC) | temp C | wind direction | speed KPH | gust KPH | rain 1hr cm | rain 24hr cm | rain mn cm | humidity % | barometer mb |
| 20260906130241 | 20 | 22 | 1.6 | 3.2 | 0.00 | 0.00 | 0.00 | 99 | 1083.4 |
| 20260906125257 | 19 | 22 | 0.0 | 0.0 | 0.00 | 0.00 | 0.00 | 98 | 1083.3 |
| 20260906124340 | 18 | 22 | 0.0 | 0.0 | 0.00 | 0.00 | 0.00 | 98 | 1083.2 |
| 20260906122359 | 18 | 22 | 0.0 | 0.0 | 0.00 | 0.00 | 0.00 | 98 | 1083.1 |
| 20260906120557 | 18 | 22 | 0.0 | 0.0 | 0.00 | 0.00 | 0.00 | 99 | 1082.9 |
| 20260906115600 | 18 | 22 | 0.0 | 0.0 | 0.00 | 0.00 | 0.00 | 99 | 1082.8 |
| 20260906113657 | 18 | 22 | 1.6 | 1.6 | 0.00 | 0.00 | 0.00 | 98 | 1082.3 |
| 20260906111757 | 18 | 22 | 0.0 | 0.0 | 0.00 | 0.00 | 0.00 | 99 | 1082.3 |
| 20260906110755 | 18 | 22 | 0.0 | 0.0 | 0.00 | 0.00 | 0.00 | 99 | 1082.3 |
| 20260906104857 | 18 | 22 | 0.0 | 1.6 | 0.00 | 0.00 | 0.00 | 98 | 1082.1 |
| 20260906103956 | 18 | 22 | 1.6 | 1.6 | 0.00 | 0.00 | 0.00 | 99 | 1081.9 |
| 20260906102957 | 18 | 22 | 1.6 | 3.2 | 0.00 | 0.00 | 0.00 | 99 | 1082.0 |
| 20260906102056 | 18 | 22 | 1.6 | 1.6 | 0.00 | 0.00 | 0.00 | 98 | 1081.8 |
| 20260906101942 | 18 | 22 | 0.0 | 1.6 | 0.00 | 0.00 | 0.00 | 98 | 1081.8 |
| 20260906100957 | 18 | 22 | 3.2 | 4.8 | 0.00 | 0.00 | 0.00 | 98 | 1081.6 |
| 20260906095100 | 18 | 22 | 1.6 | 3.2 | 0.00 | 0.00 | 0.00 | 98 | 1081.6 |
| 20260906093157 | 18 | 22 | 0.0 | 0.0 | 0.00 | 0.00 | 0.00 | 97 | 1081.7 |
| 20260906092159 | 18 | 22 | 1.6 | 4.8 | 0.00 | 0.00 | 0.00 | 97 | 1081.6 |
| 20260906091242 | 18 | 22 | 0.0 | 3.2 | 0.00 | 0.00 | 0.00 | 98 | 1081.3 |
| 20260906090257 | 18 | 22 | 3.2 | 8.0 | 0.00 | 0.00 | 0.00 | 97 | 1081.5 |
| 20260906085258 | 18 | 22 | 1.6 | 4.8 | 0.00 | 0.00 | 0.00 | 98 | 1081.4 |
| 20260906084357 | 18 | 22 | 1.6 | 3.2 | 0.00 | 0.00 | 0.00 | 97 | 1081.5 |
| 20260906082457 | 18 | 22 | 0.0 | 0.0 | 0.00 | 0.00 | 0.00 | 97 | 1081.5 |
| 20260906081555 | 18 | 22 | 0.0 | 0.0 | 0.00 | 0.00 | 0.00 | 97 | 1081.4 |
| 20260906080556 | 18 | 22 | 0.0 | 0.0 | 0.00 | 0.00 | 0.00 | 97 | 1081.3 |
| 20260906075641 | 18 | 22 | 0.0 | 0.0 | 0.00 | 0.00 | 0.00 | 96 | 1081.3 |
| 20260906075557 | 18 | 22 | 0.0 | 0.0 | 0.00 | 0.00 | 0.00 | 96 | 1081.2 |
| 20260906074557 | 18 | 22 | 0.0 | 0.0 | 0.00 | 0.00 | 0.00 | 97 | 1081.4 |
| 20260906073557 | 18 | 22 | 0.0 | 0.0 | 0.00 | 0.00 | 0.00 | 96 | 1081.4 |
| 20260906072657 | 18 | 22 | 0.0 | 0.0 | 0.00 | 0.00 | 0.00 | 97 | 1081.5 |
| 20260906071739 | 18 | 22 | 0.0 | 0.0 | 0.00 | 0.00 | 0.00 | 97 | 1081.4 |
| 20260906065758 | 18 | 22 | 0.0 | 0.0 | 0.00 | 0.00 | 0.00 | 96 | 1081.4 |
| 20260906064756 | 18 | 22 | 0.0 | 0.0 | 0.00 | 0.00 | 0.00 | 96 | 1081.6 |
| 20260906063741 | 18 | 22 | 0.0 | 0.0 | 0.00 | 0.00 | 0.00 | 95 | 1081.2 |
| 20260906062756 | 18 | 22 | 0.0 | 0.0 | 0.00 | 0.00 | 0.00 | 96 | 1081.5 |
| 20260906061756 | 18 | 22 | 0.0 | 0.0 | 0.00 | 0.00 | 0.00 | 96 | 1081.5 |
| 20260906060840 | 19 | 22 | 0.0 | 0.0 | 0.00 | 0.00 | 0.00 | 96 | 1081.5 |
| 20260906055858 | 19 | 22 | 0.0 | 0.0 | 0.00 | 0.00 | 0.00 | 96 | 1081.5 |
| 20260906052858 | 20 | 22 | 0.0 | 0.0 | 0.00 | 0.00 | 0.00 | 95 | 1081.2 |
| 20260906050858 | 20 | 22 | 0.0 | 0.0 | 0.00 | 0.00 | 0.00 | 94 | 1081.1 |
| 20260906045957 | 20 | 22 | 0.0 | 0.0 | 0.00 | 0.00 | 0.00 | 95 | 1080.9 |
| 20260906044055 | 21 | 22 | 0.0 | 1.6 | 0.00 | 0.00 | 0.00 | 94 | 1080.8 |
| 20260906043056 | 21 | 337 | 0.0 | 0.0 | 0.00 | 0.00 | 0.00 | 94 | 1080.8 |
| 20260906040253 | 21 | 22 | 0.0 | 1.6 | 0.00 | 0.00 | 0.00 | 95 | 1080.4 |
| 20260906035256 | 21 | 22 | 1.6 | 3.2 | 0.00 | 0.00 | 0.00 | 95 | 1080.3 |
| 20260906034257 | 20 | 22 | 3.2 | 4.8 | 0.00 | 0.00 | 0.00 | 95 | 1080.3 |
| 20260906033256 | 20 | 17 | 4.8 | 8.0 | 0.00 | 0.00 | 0.00 | 93 | 1080.3 |
| 20260906032254 | 20 | 22 | 3.2 | 8.0 | 0.00 | 0.00 | 0.00 | 94 | 1080.3 |
| 20260906031339 | 20 | 9 | 3.2 | 6.4 | 0.00 | 0.00 | 0.00 | 94 | 1080.4 |
| 20260906030357 | 20 | 22 | 3.2 | 4.8 | 0.00 | 0.00 | 0.00 | 92 | 1080.2 |
| 20260906025355 | 20 | 22 | 0.0 | 1.6 | 0.00 | 0.00 | 0.00 | 92 | 1080.3 |
| 20260906024438 | 20 | 31 | 4.8 | 9.7 | 0.00 | 0.00 | 0.00 | 91 | 1080.2 |
| 20260906023456 | 21 | 351 | 3.2 | 6.4 | 0.00 | 0.00 | 0.00 | 92 | 1080.1 |
| 20260906021555 | 21 | 48 | 3.2 | 8.0 | 0.00 | 0.00 | 0.00 | 91 | 1080.1 |
| 20260906020555 | 21 | 25 | 3.2 | 9.7 | 0.00 | 0.00 | 0.00 | 91 | 1080.2 |
| 20260906015556 | 21 | 22 | 3.2 | 4.8 | 0.00 | 0.00 | 0.00 | 91 | 1080.3 |
| 20260906013556 | 21 | 360 | 1.6 | 6.4 | 0.00 | 0.00 | 0.00 | 90 | 1080.2 |
| 20260906012556 | 21 | 22 | 0.0 | 1.6 | 0.00 | 0.00 | 0.00 | 91 | 1080.1 |
| 20260906011554 | 21 | 14 | 4.8 | 9.7 | 0.00 | 0.00 | 0.00 | 90 | 1080.3 |
| 20260906010556 | 21 | 22 | 1.6 | 8.0 | 0.00 | 0.00 | 0.00 | 90 | 1080.2 |
| 20260906005637 | 21 | 22 | 3.2 | 6.4 | 0.00 | 0.00 | 0.00 | 91 | 1080.1 |
| 20260906004656 | 21 | 34 | 6.4 | 17.7 | 0.00 | 0.00 | 0.00 | 91 | 1079.8 |
| 20260906003755 | 21 | 21 | 6.4 | 11.3 | 0.00 | 0.00 | 0.00 | 90 | 1079.7 |
| 20260906002756 | 21 | 359 | 3.2 | 8.0 | 0.00 | 0.00 | 0.00 | 90 | 1079.7 |
| 20260906001839 | 21 | 30 | 4.8 | 12.9 | 0.00 | 0.00 | 0.00 | 89 | 1079.7 |
| 20260906000855 | 21 | 22 | 6.4 | 14.5 | 0.00 | 0.00 | 0.00 | 89 | 1079.5 |
| 20260905235856 | 22 | 21 | 9.7 | 17.7 | 0.00 | 0.00 | 0.00 | 87 | 1079.6 |
| 20260905234955 | 22 | 34 | 3.2 | 8.0 | 0.00 | 0.00 | 0.00 | 88 | 1079.7 |
| 20260905233138 | 22 | 30 | 9.7 | 24.1 | 0.00 | 0.00 | 0.00 | 88 | 1079.7 |
| 20260905232155 | 21 | 35 | 4.8 | 9.7 | 0.00 | 0.00 | 0.00 | 89 | 1079.6 |
| 20260905230254 | 22 | 22 | 1.6 | 3.2 | 0.00 | 0.00 | 0.00 | 87 | 1079.6 |
| 20260905224339 | 22 | 24 | 8.0 | 11.3 | 0.00 | 0.00 | 0.00 | 85 | 1079.5 |
| 20260905222355 | 23 | 52 | 6.4 | 12.9 | 0.00 | 0.00 | 0.00 | 84 | 1079.3 |
| 20260905221355 | 23 | 23 | 6.4 | 14.5 | 0.00 | 0.00 | 0.00 | 82 | 1079.2 |
| 20260905215455 | 24 | 71 | 3.2 | 6.4 | 0.00 | 0.00 | 0.00 | 81 | 1078.9 |
| 20260905214553 | 25 | 22 | 4.8 | 8.0 | 0.00 | 0.00 | 0.00 | 80 | 1078.9 |
| 20260905213638 | 25 | 61 | 4.8 | 11.3 | 0.00 | 0.00 | 0.00 | 78 | 1078.7 |
| 20260905212656 | 25 | 31 | 6.4 | 12.9 | 0.00 | 0.00 | 0.00 | 77 | 1078.5 |
| 20260905211754 | 25 | 24 | 4.8 | 11.3 | 0.00 | 0.00 | 0.00 | 78 | 1078.5 |
| 20260905210755 | 25 | 44 | 0.0 | 4.8 | 0.00 | 0.00 | 0.00 | 78 | 1078.5 |
| 20260905205757 | 25 | 31 | 4.8 | 8.0 | 0.00 | 0.00 | 0.00 | 78 | 1078.6 |
| 20260905204837 | 26 | 41 | 4.8 | 11.3 | 0.00 | 0.00 | 0.00 | 77 | 1078.5 |
| 20260905203856 | 26 | 44 | 6.4 | 11.3 | 0.00 | 0.00 | 0.00 | 76 | 1078.4 |
| 20260905200955 | 27 | 18 | 6.4 | 16.1 | 0.00 | 0.00 | 0.00 | 70 | 1078.4 |
| 20260905191954 | 25 | 22 | 1.6 | 9.7 | 0.00 | 0.00 | 0.00 | 81 | 1078.8 |
| 20260905191038 | 25 | 9 | 3.2 | 9.7 | 0.00 | 0.00 | 0.00 | 83 | 1078.9 |
| 20260905184056 | 24 | 17 | 3.2 | 6.4 | 0.00 | 0.00 | 0.00 | 86 | 1079.2 |
| 20260905183055 | 24 | 348 | 1.6 | 6.4 | 0.00 | 0.00 | 0.00 | 85 | 1079.4 |
| 20260905182138 | 23 | 67 | 1.6 | 3.2 | 0.00 | 0.00 | 0.00 | 86 | 1079.2 |
| 20260905181138 | 24 | 20 | 4.8 | 8.0 | 0.00 | 0.00 | 0.00 | 85 | 1079.2 |
| 20260905180153 | 24 | 18 | 6.4 | 6.4 | 0.00 | 0.00 | 0.00 | 85 | 1079.2 |
| 20260905175153 | 24 | 22 | 3.2 | 8.0 | 0.00 | 0.00 | 0.00 | 84 | 1079.0 |
| 20260905174239 | 24 | 20 | 6.4 | 14.5 | 0.00 | 0.00 | 0.00 | 84 | 1078.8 |
| 20260905173255 | 24 | 16 | 3.2 | 14.5 | 0.00 | 0.00 | 0.00 | 84 | 1079.0 |
| 20260905172338 | 24 | 32 | 4.8 | 9.7 | 0.00 | 0.00 | 0.00 | 86 | 1078.9 |
| 20260905170353 | 23 | 22 | 0.0 | 3.2 | 0.00 | 0.05 | 0.00 | 87 | 1079.3 |
| 20260905165354 | 23 | 5 | 4.8 | 11.3 | 0.00 | 0.20 | 0.00 | 88 | 1079.2 |
| 20260905164354 | 23 | 22 | 0.0 | 1.6 | 0.00 | 0.56 | 0.00 | 88 | 1079.5 |
| 20260905163439 | 23 | 2 | 1.6 | 4.8 | 0.00 | 0.56 | 0.00 | 88 | 1079.3 |
| 20260905162539 | 23 | 22 | 4.8 | 9.7 | 0.00 | 0.56 | 0.00 | 88 | 1079.3 |
| 20260905161554 | 23 | 64 | 3.2 | 8.0 | 0.00 | 0.56 | 0.00 | 87 | 1079.3 |
| 20260905160553 | 23 | 349 | 1.6 | 8.0 | 0.00 | 0.56 | 0.00 | 87 | 1079.2 |
| 20260905155555 | 23 | 22 | 4.8 | 11.3 | 0.00 | 0.56 | 0.00 | 87 | 1079.2 |
| 20260905153653 | 23 | 22 | 1.6 | 6.4 | 0.00 | 0.56 | 0.00 | 87 | 1078.9 |
| 20260905152655 | 23 | 23 | 8.0 | 12.9 | 0.00 | 0.56 | 0.00 | 88 | 1078.8 |
| 20260905151653 | 23 | 28 | 3.2 | 8.0 | 0.00 | 0.56 | 0.00 | 90 | 1078.8 |
| 20260905150654 | 23 | 26 | 3.2 | 6.4 | 0.00 | 0.56 | 0.00 | 91 | 1078.7 |
| 20260905145656 | 23 | 21 | 6.4 | 12.9 | 0.00 | 0.56 | 0.00 | 90 | 1078.6 |
| 20260905144654 | 23 | 22 | 1.6 | 3.2 | 0.00 | 0.56 | 0.00 | 91 | 1078.6 |
| 20260905143655 | 23 | 23 | 1.6 | 4.8 | 0.00 | 0.56 | 0.00 | 91 | 1078.5 |
| 20260905142656 | 23 | 3 | 1.6 | 8.0 | 0.00 | 0.56 | 0.00 | 91 | 1078.5 |
| 20260905140654 | 23 | 18 | 3.2 | 9.7 | 0.00 | 0.56 | 0.00 | 93 | 1078.3 |
| 20260905135752 | 23 | 45 | 1.6 | 4.8 | 0.00 | 0.56 | 0.00 | 94 | 1078.3 |
| 20260905134752 | 22 | 32 | 3.2 | 4.8 | 0.00 | 0.56 | 0.00 | 95 | 1078.3 |
| 20260905133755 | 22 | 26 | 3.2 | 6.4 | 0.00 | 0.56 | 0.00 | 96 | 1078.3 |
| 20260905132752 | 23 | 22 | 1.6 | 3.2 | 0.00 | 0.56 | 0.00 | 96 | 1078.5 |
| 20260905131757 | 22 | 17 | 4.8 | 8.0 | 0.00 | 0.56 | 0.00 | 97 | 1078.6 |
| 20260905130854 | 22 | 21 | 4.8 | 11.3 | 0.00 | 0.56 | 0.00 | 98 | 1078.2 |